Time;durP1;ratioP1;P1;durP2;ratioP2;P2;SDS_P1;SDS_P2;PMS_P1;PMS_P2;Temp;Humidity;BMP_temperature;BMP_pressure;BME280_temperature;BME280_humidity;BME280_pressure;Samples;Min_cycle;Max_cycle;Signal;HPM_P1;HPM_P2
2021/09/25 00:00:35;;;;;;;2.50;1.80;;;22.30;60.20;;;;;;5063389;28;20208;-68
2021/09/25 00:03:05;;;;;;;2.30;2.10;;;22.30;60.20;;;;;;5039114;28;20630;-69
2021/09/25 00:05:43;;;;;;;2.33;2.10;;;22.30;60.20;;;;;;5070441;28;20212;-69
2021/09/25 00:08:18;;;;;;;2.50;2.20;;;22.30;60.20;;;;;;5063735;28;20194;-69
2021/09/25 00:10:48;;;;;;;2.40;2.20;;;22.30;60.20;;;;;;5064985;28;20205;-69
2021/09/25 00:13:21;;;;;;;1.97;1.80;;;22.30;60.20;;;;;;5053547;28;20626;-69
2021/09/25 00:15:51;;;;;;;2.57;2.30;;;22.30;60.20;;;;;;5066516;28;20629;-69
2021/09/25 00:18:21;;;;;;;2.80;2.07;;;22.30;60.20;;;;;;5054520;28;20271;-68
2021/09/25 00:20:54;;;;;;;2.03;1.93;;;22.20;60.20;;;;;;5064682;28;20205;-68
2021/09/25 00:23:25;;;;;;;2.20;2.00;;;22.20;60.10;;;;;;5068243;28;20734;-68
2021/09/25 00:25:54;;;;;;;2.23;2.03;;;22.20;60.20;;;;;;5071239;28;20270;-69
2021/09/25 00:28:24;;;;;;;2.17;1.97;;;22.20;60.20;;;;;;5063456;28;20213;-69
2021/09/25 00:30:56;;;;;;;2.60;1.80;;;22.20;60.20;;;;;;5062740;28;20573;-69
2021/09/25 00:33:27;;;;;;;2.13;1.97;;;22.20;60.20;;;;;;5067208;28;20271;-69
2021/09/25 00:36:00;;;;;;;2.57;2.37;;;22.20;60.30;;;;;;5028911;28;20206;-69
2021/09/25 00:38:29;;;;;;;2.17;1.93;;;22.20;60.30;;;;;;5070438;28;20632;-69
2021/09/25 00:41:02;;;;;;;2.27;2.07;;;22.20;60.30;;;;;;5063703;28;20238;-69
2021/09/25 00:43:37;;;;;;;1.97;1.87;;;22.20;60.30;;;;;;5057988;28;20540;-69
2021/09/25 00:46:13;;;;;;;2.23;2.03;;;22.20;60.30;;;;;;5033822;28;20210;-68
2021/09/25 00:48:41;;;;;;;1.87;1.77;;;22.20;60.20;;;;;;5036399;28;20743;-68
2021/09/25 00:51:14;;;;;;;2.33;2.13;;;22.20;60.30;;;;;;5053923;28;20222;-68
2021/09/25 00:53:46;;;;;;;2.70;2.30;;;22.20;60.40;;;;;;5020459;28;20608;-68
2021/09/25 00:56:17;;;;;;;2.53;2.30;;;22.20;60.30;;;;;;5037536;28;20318;-68
2021/09/25 00:58:49;;;;;;;2.13;1.90;;;22.20;60.40;;;;;;5038349;28;20203;-69
2021/09/25 01:01:22;;;;;;;2.00;1.90;;;22.20;60.40;;;;;;5042471;28;20625;-68
2021/09/25 01:03:50;;;;;;;2.40;2.20;;;22.20;60.20;;;;;;5053853;28;20203;-68
2021/09/25 01:06:23;;;;;;;2.40;2.20;;;22.20;60.30;;;;;;5051967;28;20225;-69
2021/09/25 01:08:54;;;;;;;2.20;2.00;;;22.20;60.50;;;;;;5052656;28;20651;-69
2021/09/25 01:11:26;;;;;;;2.37;2.17;;;22.20;60.40;;;;;;5048905;28;20625;-69
2021/09/25 01:13:56;;;;;;;2.30;2.10;;;22.20;60.30;;;;;;5031377;28;20222;-69
2021/09/25 01:16:28;;;;;;;2.30;2.10;;;22.20;60.30;;;;;;5034693;28;20752;-69
2021/09/25 01:18:56;;;;;;;2.43;2.20;;;22.20;60.30;;;;;;5053798;28;20198;-69
2021/09/25 01:21:23;;;;;;;2.40;2.20;;;22.20;60.30;;;;;;5051611;28;20199;-69
2021/09/25 01:23:56;;;;;;;2.30;2.10;;;22.10;60.30;;;;;;5022316;28;20199;-69
2021/09/25 01:26:28;;;;;;;2.10;1.93;;;22.20;60.20;;;;;;5051091;28;20227;-69
2021/09/25 01:28:58;;;;;;;2.10;2.00;;;22.20;60.10;;;;;;5040740;28;20574;-69
2021/09/25 01:31:27;;;;;;;2.30;2.10;;;22.10;60.20;;;;;;5045282;28;20199;-69
2021/09/25 01:33:56;;;;;;;2.30;2.10;;;22.10;60.10;;;;;;5028886;28;20302;-69
2021/09/25 01:36:27;;;;;;;1.90;1.80;;;22.10;60.20;;;;;;5034412;28;20628;-69
2021/09/25 01:38:57;;;;;;;2.37;2.17;;;22.10;60.10;;;;;;5048581;28;20264;-69
2021/09/25 01:41:26;;;;;;;2.10;1.90;;;22.10;60.20;;;;;;5033633;28;20201;-69
2021/09/25 01:43:54;;;;;;;2.40;2.20;;;22.10;60.30;;;;;;5041007;28;20716;-69
2021/09/25 01:46:25;;;;;;;2.40;2.20;;;22.10;60.30;;;;;;5063863;28;20577;-69
2021/09/25 01:48:55;;;;;;;1.80;1.70;;;22.10;60.20;;;;;;5067258;28;20190;-69
2021/09/25 01:51:25;;;;;;;2.17;1.97;;;22.10;60.20;;;;;;5064956;28;20190;-69
2021/09/25 01:53:57;;;;;;;2.30;2.10;;;22.10;60.10;;;;;;5070481;28;20568;-69
2021/09/25 01:56:26;;;;;;;2.23;2.03;;;22.10;60.30;;;;;;5055291;28;20203;-69
2021/09/25 01:58:55;;;;;;;2.03;1.93;;;22.10;60.30;;;;;;5073017;28;20198;-69
2021/09/25 02:01:26;;;;;;;2.20;2.00;;;22.10;60.10;;;;;;5060304;28;20202;-69
2021/09/25 02:03:58;;;;;;;2.30;2.10;;;22.10;60.20;;;;;;5053941;28;20205;-69
2021/09/25 02:06:30;;;;;;;2.37;2.17;;;22.10;60.20;;;;;;5071715;28;20671;-69
2021/09/25 02:08:57;;;;;;;2.00;1.83;;;22.10;60.20;;;;;;5072964;28;20210;-69
2021/09/25 02:11:27;;;;;;;2.37;2.17;;;22.10;60.20;;;;;;5048313;28;20715;-68
2021/09/25 02:14:08;;;;;;;2.73;2.20;;;22.10;60.30;;;;;;5066540;28;20194;-68
2021/09/25 02:16:39;;;;;;;2.10;1.87;;;22.10;60.30;;;;;;5075283;28;20217;-68
2021/09/25 02:19:08;;;;;;;2.17;1.97;;;22.10;60.30;;;;;;5072350;28;20210;-68
2021/09/25 02:21:39;;;;;;;2.30;2.00;;;22.10;60.20;;;;;;5072342;28;20279;-69
2021/09/25 02:24:13;;;;;;;2.47;2.27;;;22.10;60.30;;;;;;5058053;28;20206;-69
2021/09/25 02:26:44;;;;;;;2.00;1.90;;;22.10;60.20;;;;;;5068529;28;20271;-69
2021/09/25 02:29:11;;;;;;;2.50;2.30;;;22.10;60.30;;;;;;5054756;28;20190;-69
2021/09/25 02:31:43;;;;;;;2.20;2.00;;;22.10;60.40;;;;;;5071297;28;20201;-68
2021/09/25 02:34:10;;;;;;;4.87;2.23;;;22.10;60.30;;;;;;5054983;28;20191;-68
2021/09/25 02:36:41;;;;;;;2.20;2.00;;;22.10;60.30;;;;;;5054591;28;20206;-69
2021/09/25 02:39:08;;;;;;;2.20;1.87;;;22.10;60.30;;;;;;5066147;28;20205;-69
2021/09/25 02:41:37;;;;;;;2.40;2.20;;;22.10;60.20;;;;;;5068445;28;20202;-69
2021/09/25 02:44:08;;;;;;;2.13;1.90;;;22.10;60.30;;;;;;5076121;28;20621;-69
2021/09/25 02:46:37;;;;;;;2.03;1.93;;;22.10;60.30;;;;;;5053533;28;20574;-69
2021/09/25 02:49:22;;;;;;;2.00;1.90;;;22.10;61.20;;;;;;5064049;28;20194;-69
2021/09/25 02:51:53;;;;;;;4.17;2.30;;;22.10;60.60;;;;;;5068912;28;20198;-69
2021/09/25 02:54:26;;;;;;;3.00;2.30;;;22.10;60.60;;;;;;5063125;28;20607;-69
2021/09/25 02:56:57;;;;;;;2.33;2.13;;;22.10;60.60;;;;;;5055304;28;20203;-68
2021/09/25 02:59:26;;;;;;;1.87;1.70;;;22.10;60.60;;;;;;5072213;28;20680;-68
2021/09/25 03:01:55;;;;;;;2.17;1.90;;;22.10;60.60;;;;;;5067050;28;20226;-68
2021/09/25 03:04:28;;;;;;;2.07;1.97;;;22.10;60.80;;;;;;5072326;28;20622;-69
2021/09/25 03:06:59;;;;;;;2.20;1.80;;;22.10;60.40;;;;;;5075493;28;20214;-69
2021/09/25 03:09:32;;;;;;;2.33;2.13;;;22.10;60.60;;;;;;5069154;28;20206;-69
2021/09/25 03:12:04;;;;;;;2.47;2.27;;;22.10;60.60;;;;;;5077607;28;20268;-69
2021/09/25 03:14:33;;;;;;;2.23;1.90;;;22.10;60.60;;;;;;5053805;28;20537;-69
2021/09/25 03:17:04;;;;;;;2.10;1.90;;;22.00;60.60;;;;;;5071129;28;20815;-69
2021/09/25 03:19:36;;;;;;;1.73;1.63;;;22.10;60.50;;;;;;5070860;28;20297;-68
2021/09/25 03:22:07;;;;;;;2.03;1.83;;;22.10;60.60;;;;;;5075050;28;20210;-68
2021/09/25 03:24:38;;;;;;;2.23;2.00;;;22.00;60.50;;;;;;5063288;28;20206;-68
2021/09/25 03:27:09;;;;;;;3.90;2.00;;;22.00;60.60;;;;;;5063026;28;20225;-68
2021/09/25 03:29:40;;;;;;;2.40;2.17;;;22.00;60.60;;;;;;5052935;28;20278;-68
2021/09/25 03:32:10;;;;;;;2.70;2.00;;;22.00;60.30;;;;;;5062284;28;20669;-68
2021/09/25 03:34:41;;;;;;;2.03;1.50;;;22.10;60.60;;;;;;5072252;28;20201;-68
2021/09/25 03:37:13;;;;;;;5.20;2.00;;;22.00;60.60;;;;;;5053954;28;20213;-68
2021/09/25 03:39:47;;;;;;;2.97;2.00;;;22.00;60.50;;;;;;5054181;28;20643;-68
2021/09/25 03:42:19;;;;;;;1.90;1.80;;;22.00;60.60;;;;;;5068209;28;20251;-68
2021/09/25 03:44:53;;;;;;;1.80;1.70;;;22.00;60.60;;;;;;5073916;28;20233;-68
2021/09/25 03:47:24;;;;;;;1.80;1.70;;;22.00;60.70;;;;;;5068451;28;20237;-68
2021/09/25 03:49:55;;;;;;;2.00;1.90;;;22.00;60.60;;;;;;5043113;28;20209;-68
2021/09/25 03:52:25;;;;;;;3.10;2.00;;;22.00;60.60;;;;;;5066582;28;20208;-68
2021/09/25 03:54:53;;;;;;;1.63;1.53;;;22.00;60.50;;;;;;5036931;28;20222;-68
2021/09/25 03:57:20;;;;;;;2.33;1.93;;;22.00;60.70;;;;;;5031389;28;20214;-68
2021/09/25 03:59:52;;;;;;;1.70;1.60;;;22.00;60.50;;;;;;5057994;28;20209;-68
2021/09/25 04:02:25;;;;;;;2.07;1.93;;;22.00;60.50;;;;;;5066119;28;20213;-68
2021/09/25 04:04:54;;;;;;;1.70;1.60;;;22.00;60.40;;;;;;5052348;28;20576;-68
2021/09/25 04:07:26;;;;;;;1.87;1.77;;;22.00;60.50;;;;;;5060545;28;20217;-68
2021/09/25 04:09:56;;;;;;;1.87;1.70;;;22.00;60.50;;;;;;5070022;28;21427;-68
2021/09/25 04:12:24;;;;;;;2.13;1.93;;;22.00;60.50;;;;;;5069934;28;20186;-68
2021/09/25 04:14:54;;;;;;;2.03;1.83;;;22.00;60.50;;;;;;5050283;28;20205;-68
2021/09/25 04:17:25;;;;;;;2.13;1.93;;;22.00;60.40;;;;;;5065348;28;20208;-69
2021/09/25 04:19:56;;;;;;;2.33;2.07;;;22.00;60.40;;;;;;5067659;28;20611;-69
2021/09/25 04:22:23;;;;;;;2.70;1.90;;;22.00;60.40;;;;;;5052965;28;20592;-68
2021/09/25 04:24:54;;;;;;;2.40;2.00;;;22.00;60.50;;;;;;5052745;28;20608;-68
2021/09/25 04:27:29;;;;;;;3.37;1.60;;;22.00;60.30;;;;;;5061812;28;20209;-68
2021/09/25 04:30:01;;;;;;;1.80;1.70;;;22.00;60.30;;;;;;5069039;28;20200;-68
2021/09/25 04:32:29;;;;;;;3.30;1.87;;;22.00;60.50;;;;;;5058096;28;20209;-68
2021/09/25 04:35:00;;;;;;;2.10;1.90;;;22.00;60.30;;;;;;5056146;28;20255;-68
2021/09/25 04:37:30;;;;;;;2.07;1.77;;;22.00;60.40;;;;;;5074100;28;20205;-68
2021/09/25 04:39:58;;;;;;;2.00;1.90;;;22.00;60.30;;;;;;5076045;28;20198;-68
2021/09/25 04:42:29;;;;;;;2.40;2.00;;;22.00;60.30;;;;;;5075186;28;20202;-68
2021/09/25 04:44:58;;;;;;;2.10;1.97;;;22.00;60.30;;;;;;5071092;28;20293;-68
2021/09/25 04:47:26;;;;;;;2.07;1.87;;;22.00;60.40;;;;;;5075365;28;20785;-68
2021/09/25 04:49:54;;;;;;;2.20;2.00;;;22.00;60.20;;;;;;5071451;28;20198;-68
2021/09/25 04:52:27;;;;;;;2.07;1.80;;;22.00;60.30;;;;;;5070120;28;20655;-68
2021/09/25 04:54:56;;;;;;;2.50;1.97;;;22.00;60.30;;;;;;5055398;28;20600;-69
2021/09/25 04:57:28;;;;;;;2.17;1.97;;;22.00;60.30;;;;;;5067188;28;20611;-69
2021/09/25 04:59:57;;;;;;;2.20;1.87;;;22.00;60.20;;;;;;5061924;28;20698;-69
2021/09/25 05:02:31;;;;;;;2.37;2.10;;;22.00;60.30;;;;;;5068778;28;20206;-69
2021/09/25 05:05:02;;;;;;;3.07;2.07;;;21.90;60.20;;;;;;5070181;28;20208;-69
2021/09/25 05:07:36;;;;;;;2.57;2.00;;;22.00;60.30;;;;;;5069471;28;20218;-70
2021/09/25 05:10:10;;;;;;;2.00;1.80;;;22.00;60.30;;;;;;5053841;28;20653;-69
2021/09/25 05:12:40;;;;;;;1.80;1.70;;;22.00;60.30;;;;;;5053690;28;20198;-69
2021/09/25 05:15:46;;;;;;;2.20;2.00;;;22.00;60.20;;;;;;5061767;28;20228;-68
2021/09/25 05:18:31;;;;;;;1.97;1.83;;;22.00;60.20;;;;;;5066524;28;20194;-69
2021/09/25 05:21:06;;;;;;;2.60;1.97;;;22.00;60.30;;;;;;5078139;28;20224;-67
2021/09/25 05:23:36;;;;;;;2.63;1.90;;;22.00;60.20;;;;;;5064778;28;20201;-69
2021/09/25 05:26:09;;;;;;;1.90;1.70;;;21.90;60.10;;;;;;5081892;28;20224;-68
2021/09/25 05:28:43;;;;;;;2.10;1.90;;;21.90;60.10;;;;;;5056517;28;20743;-69
2021/09/25 05:31:15;;;;;;;2.10;1.90;;;21.90;60.10;;;;;;5083767;28;20202;-67
2021/09/25 05:33:47;;;;;;;2.23;2.00;;;21.90;60.10;;;;;;5066364;28;20588;-66
2021/09/25 05:36:16;;;;;;;2.70;2.00;;;21.90;60.20;;;;;;5082596;28;20216;-67
2021/09/25 05:38:47;;;;;;;2.73;2.17;;;21.90;60.10;;;;;;5062822;28;20194;-67
2021/09/25 05:41:21;;;;;;;1.83;1.70;;;21.90;60.10;;;;;;5073091;28;20194;-66
2021/09/25 05:43:58;;;;;;;2.00;1.90;;;21.90;60.10;;;;;;5072105;28;20200;-66
2021/09/25 05:46:30;;;;;;;2.17;1.97;;;21.90;60.10;;;;;;5060008;28;20719;-68
2021/09/25 05:49:02;;;;;;;2.40;2.07;;;21.90;60.00;;;;;;5068035;28;20328;-69
2021/09/25 05:51:34;;;;;;;1.73;1.63;;;21.90;60.00;;;;;;5050351;28;20596;-69
2021/09/25 05:54:03;;;;;;;2.20;2.00;;;21.90;60.00;;;;;;5072360;28;20206;-70
2021/09/25 05:56:34;;;;;;;2.13;1.97;;;21.90;60.00;;;;;;5055344;28;20181;-66
2021/09/25 05:59:02;;;;;;;2.43;2.23;;;21.90;60.00;;;;;;5069828;28;20206;-66
2021/09/25 06:01:31;;;;;;;2.37;2.10;;;21.90;60.00;;;;;;5072598;28;20236;-69
2021/09/25 06:04:03;;;;;;;2.30;2.10;;;21.90;60.60;;;;;;5051127;28;20208;-70
2021/09/25 06:06:33;;;;;;;2.13;1.93;;;21.90;60.00;;;;;;5052584;28;20202;-70
2021/09/25 06:09:02;;;;;;;2.30;2.10;;;21.90;60.00;;;;;;5070442;28;20658;-69
2021/09/25 06:11:37;;;;;;;2.40;2.20;;;21.90;60.00;;;;;;5065278;28;20712;-69
2021/09/25 06:14:09;;;;;;;2.57;2.37;;;21.90;60.00;;;;;;5062181;28;20198;-69
2021/09/25 06:16:40;;;;;;;2.23;2.03;;;21.90;60.00;;;;;;5055084;28;20255;-69
2021/09/25 06:19:18;;;;;;;2.50;2.30;;;21.90;59.90;;;;;;5064256;28;20194;-69
2021/09/25 06:21:55;;;;;;;2.60;2.40;;;21.90;60.00;;;;;;5071548;28;20258;-69
2021/09/25 06:24:26;;;;;;;1.90;1.80;;;21.90;59.90;;;;;;5050558;28;20701;-69
2021/09/25 06:26:57;;;;;;;2.33;2.13;;;21.90;59.90;;;;;;5071257;28;20734;-67
2021/09/25 06:29:30;;;;;;;2.30;2.10;;;21.90;59.90;;;;;;5059989;28;20222;-67
2021/09/25 06:32:02;;;;;;;2.30;2.10;;;21.90;59.80;;;;;;5052779;28;20267;-70
2021/09/25 06:34:33;;;;;;;2.37;2.17;;;21.90;59.80;;;;;;5046974;28;20202;-69
2021/09/25 06:37:03;;;;;;;2.40;2.20;;;21.90;59.80;;;;;;5067963;28;20522;-66
2021/09/25 06:39:34;;;;;;;3.00;2.70;;;21.90;59.80;;;;;;5075187;28;20251;-66
2021/09/25 06:42:07;;;;;;;2.30;2.10;;;21.90;59.80;;;;;;5072032;28;20216;-66
2021/09/25 06:44:42;;;;;;;3.47;2.30;;;21.90;59.80;;;;;;5063382;28;20575;-66
2021/09/25 06:47:13;;;;;;;2.50;2.30;;;21.90;59.80;;;;;;5054797;28;20208;-68
2021/09/25 06:49:43;;;;;;;2.50;2.30;;;21.90;59.80;;;;;;5057363;28;20658;-69
2021/09/25 06:52:15;;;;;;;2.20;2.00;;;21.90;59.80;;;;;;5056824;28;20215;-69
2021/09/25 06:54:47;;;;;;;2.33;2.13;;;21.90;59.70;;;;;;5069514;28;20542;-69
2021/09/25 06:57:16;;;;;;;2.60;2.30;;;21.90;59.70;;;;;;5060761;28;20209;-68
2021/09/25 06:59:47;;;;;;;2.47;2.20;;;21.90;59.80;;;;;;5053645;28;20293;-69
2021/09/25 07:02:17;;;;;;;2.70;2.10;;;21.90;59.80;;;;;;5069469;28;20204;-68
2021/09/25 07:04:49;;;;;;;2.60;2.30;;;21.90;59.80;;;;;;5047492;28;20222;-69
2021/09/25 07:07:19;;;;;;;2.70;2.20;;;21.90;60.00;;;;;;5067267;28;20215;-70
2021/09/25 07:10:06;;;;;;;2.93;2.40;;;21.90;60.30;;;;;;5055209;28;20361;-70
2021/09/25 07:12:45;;;;;;;3.43;2.87;;;22.00;60.70;;;;;;5070599;28;20311;-71
2021/09/25 07:15:23;;;;;;;2.40;2.17;;;22.00;61.30;;;;;;5050203;28;20193;-70
2021/09/25 07:17:54;;;;;;;2.50;2.30;;;22.00;61.00;;;;;;5068380;28;20244;-70
2021/09/25 07:20:23;;;;;;;4.77;2.67;;;22.00;60.80;;;;;;5067060;28;20214;-71
2021/09/25 07:22:56;;;;;;;4.40;2.80;;;22.00;61.60;;;;;;5034674;28;20229;-70
2021/09/25 07:25:28;;;;;;;4.17;2.77;;;22.10;61.90;;;;;;5070200;28;20570;-68
2021/09/25 07:28:06;;;;;;;5.57;2.93;;;22.00;61.50;;;;;;5053691;28;20213;-68
2021/09/25 07:30:43;;;;;;;6.23;2.87;;;22.10;61.80;;;;;;5053810;28;20332;-69
2021/09/25 07:33:16;;;;;;;3.57;3.03;;;22.10;61.70;;;;;;5066185;28;20274;-69
2021/09/25 07:35:48;;;;;;;5.20;2.83;;;22.10;61.60;;;;;;5059891;28;20208;-69
2021/09/25 07:38:18;;;;;;;3.53;2.90;;;22.20;61.60;;;;;;5065799;28;20194;-68
2021/09/25 07:40:52;;;;;;;4.53;2.90;;;22.10;61.40;;;;;;5061849;28;20309;-68
2021/09/25 07:43:24;;;;;;;3.30;3.00;;;22.10;61.40;;;;;;5060371;28;20209;-68
2021/09/25 07:45:57;;;;;;;3.97;2.70;;;22.20;61.50;;;;;;5051698;28;20238;-68
2021/09/25 07:48:27;;;;;;;5.07;3.37;;;22.20;61.50;;;;;;5069618;28;20224;-70
2021/09/25 07:51:02;;;;;;;5.97;3.00;;;22.20;61.50;;;;;;5051418;28;20287;-67
2021/09/25 07:53:33;;;;;;;6.23;3.13;;;22.20;61.40;;;;;;5065745;28;20208;-68
2021/09/25 07:56:03;;;;;;;6.23;3.23;;;22.20;61.50;;;;;;5067717;28;20659;-68
2021/09/25 07:58:35;;;;;;;4.30;2.80;;;22.20;61.40;;;;;;5060986;28;20195;-66
2021/09/25 08:01:05;;;;;;;4.23;2.97;;;22.20;61.50;;;;;;5068465;28;20214;-66
2021/09/25 08:03:39;;;;;;;6.17;3.37;;;22.30;61.40;;;;;;5064515;28;20576;-67
2021/09/25 08:06:10;;;;;;;4.00;3.20;;;22.30;61.20;;;;;;5065517;28;20217;-67
2021/09/25 08:08:44;;;;;;;5.03;3.07;;;22.20;60.90;;;;;;5044344;28;20222;-66
2021/09/25 08:11:15;;;;;;;5.00;3.30;;;22.20;61.00;;;;;;5064672;28;20263;-66
2021/09/25 08:13:43;;;;;;;4.73;3.13;;;22.20;60.80;;;;;;5048098;28;20759;-67
2021/09/25 08:16:13;;;;;;;4.80;3.00;;;22.20;60.90;;;;;;5065230;28;20198;-68
2021/09/25 08:18:45;;;;;;;6.27;2.97;;;22.20;61.20;;;;;;5061035;28;20899;-67
2021/09/25 08:21:13;;;;;;;6.40;3.10;;;22.30;61.00;;;;;;5051810;28;20205;-67
2021/09/25 08:23:44;;;;;;;4.10;3.30;;;22.20;60.50;;;;;;5056131;28;20216;-67
2021/09/25 08:26:16;;;;;;;7.07;3.40;;;22.20;60.60;;;;;;5062125;28;20263;-70
2021/09/25 08:28:48;;;;;;;10.30;3.60;;;22.20;60.80;;;;;;5067927;28;20213;-67
2021/09/25 08:31:22;;;;;;;6.20;3.37;;;22.30;61.20;;;;;;5064789;28;20630;-68
2021/09/25 08:33:53;;;;;;;9.00;4.20;;;22.20;61.50;;;;;;5062774;28;20244;-67
2021/09/25 08:36:23;;;;;;;6.20;3.27;;;22.30;62.70;;;;;;5032561;28;20347;-67
2021/09/25 08:39:08;;;;;;;6.40;3.40;;;22.30;62.10;;;;;;5058246;28;20201;-65
2021/09/25 08:41:38;;;;;;;5.23;3.50;;;22.30;61.80;;;;;;5026852;28;20817;-67
2021/09/25 08:44:09;;;;;;;9.20;3.70;;;22.30;61.90;;;;;;5066435;28;20696;-66
2021/09/25 08:46:47;;;;;;;6.90;3.43;;;22.30;61.80;;;;;;5039972;28;20234;-67
2021/09/25 08:49:17;;;;;;;8.20;4.07;;;22.30;61.60;;;;;;5066590;28;20240;-67
2021/09/25 08:51:46;;;;;;;5.37;3.93;;;22.30;61.80;;;;;;5064571;28;20213;-66
2021/09/25 08:54:15;;;;;;;5.17;3.53;;;22.30;61.60;;;;;;5055136;28;20199;-66
2021/09/25 08:56:47;;;;;;;7.10;3.93;;;22.30;61.60;;;;;;5063386;28;20202;-66
2021/09/25 08:59:19;;;;;;;5.77;3.77;;;22.30;61.60;;;;;;5072637;28;20403;-66
2021/09/25 09:02:18;;;;;;;5.10;3.83;;;22.30;61.60;;;;;;5050349;28;20262;-67
2021/09/25 09:04:54;;;;;;;6.10;3.93;;;22.30;61.50;;;;;;5051522;28;20257;-67
2021/09/25 09:07:31;;;;;;;4.33;3.50;;;22.30;61.50;;;;;;5054381;28;20232;-66
2021/09/25 09:09:59;;;;;;;5.67;3.77;;;22.30;61.50;;;;;;5056035;28;20216;-66
2021/09/25 09:12:30;;;;;;;7.43;4.27;;;22.30;61.50;;;;;;5075047;28;20198;-67
2021/09/25 09:15:01;;;;;;;4.90;4.00;;;22.30;61.30;;;;;;5072958;28;20210;-67
2021/09/25 09:17:33;;;;;;;5.83;3.80;;;22.30;61.20;;;;;;5071332;28;20307;-67
2021/09/25 09:20:13;;;;;;;6.33;3.57;;;22.30;61.10;;;;;;5069468;28;20189;-67
2021/09/25 09:22:45;;;;;;;5.00;4.50;;;22.30;61.20;;;;;;5065047;28;20229;-67
2021/09/25 09:25:18;;;;;;;4.50;3.83;;;22.30;61.10;;;;;;5067938;28;20213;-67
2021/09/25 09:27:54;;;;;;;4.73;3.57;;;22.30;61.10;;;;;;5072054;28;20193;-67
2021/09/25 09:30:24;;;;;;;3.70;3.30;;;22.30;60.90;;;;;;5071875;28;20217;-67
2021/09/25 09:32:54;;;;;;;7.07;3.87;;;22.30;60.90;;;;;;5069319;28;20194;-67
2021/09/25 09:35:26;;;;;;;5.97;3.80;;;22.30;60.70;;;;;;5070929;28;20533;-68
2021/09/25 09:37:58;;;;;;;4.70;3.90;;;22.30;60.80;;;;;;5067342;28;20221;-67
2021/09/25 09:40:28;;;;;;;5.17;4.10;;;22.30;60.80;;;;;;5068642;28;20217;-67
2021/09/25 09:43:02;;;;;;;4.83;3.90;;;22.30;60.80;;;;;;5055621;28;20267;-66
2021/09/25 09:45:36;;;;;;;17.70;5.37;;;22.30;60.90;;;;;;5067531;28;20247;-68
2021/09/25 09:48:11;;;;;;;15.57;6.20;;;22.30;61.70;;;;;;5065673;28;20206;-69
2021/09/25 09:50:42;;;;;;;11.20;6.17;;;22.30;61.50;;;;;;5066362;28;20776;-68
2021/09/25 09:53:14;;;;;;;20.33;7.60;;;22.40;63.00;;;;;;5068626;28;20205;-69
2021/09/25 09:55:52;;;;;;;16.50;8.00;;;22.40;63.80;;;;;;5045327;28;20319;-66
2021/09/25 09:58:34;;;;;;;17.40;7.60;;;22.40;64.90;;;;;;5068953;28;20292;-65
2021/09/25 10:01:06;;;;;;;12.77;7.10;;;22.50;65.20;;;;;;5065661;28;20218;-70
2021/09/25 10:03:37;;;;;;;16.27;7.73;;;22.50;65.30;;;;;;5053770;28;20206;-70
2021/09/25 10:06:07;;;;;;;16.23;7.97;;;22.60;66.20;;;;;;5069429;28;20202;-67
2021/09/25 10:08:38;;;;;;;16.50;6.97;;;22.60;66.10;;;;;;5069045;28;20226;-66
2021/09/25 10:11:15;;;;;;;9.87;6.60;;;22.70;67.10;;;;;;5071321;28;20894;-69
2021/09/25 10:13:45;;;;;;;14.77;7.00;;;22.70;66.50;;;;;;5053063;28;20210;-70
2021/09/25 10:16:18;;;;;;;15.33;7.13;;;22.70;66.60;;;;;;5052368;28;20208;-70
2021/09/25 10:18:51;;;;;;;16.50;7.30;;;22.60;66.70;;;;;;5069936;28;20240;-69
2021/09/25 10:21:20;;;;;;;13.90;6.20;;;22.60;67.00;;;;;;5060666;28;20202;-70
2021/09/25 10:24:35;;;;;;;11.23;6.53;;;22.60;67.10;;;;;;5070604;28;20646;-70
2021/09/25 10:27:10;;;;;;;8.60;6.57;;;22.60;67.30;;;;;;5041190;28;20223;-69
2021/09/25 10:29:47;;;;;;;10.93;6.47;;;22.60;67.40;;;;;;5070025;28;20214;-70
2021/09/25 10:32:30;;;;;;;10.43;6.53;;;22.60;67.50;;;;;;5054086;28;20224;-66
2021/09/25 10:35:18;;;;;;;10.93;5.67;;;22.60;67.60;;;;;;5057567;28;20200;-66
2021/09/25 10:38:00;;;;;;;11.13;5.83;;;22.60;67.50;;;;;;5068975;28;20236;-66
2021/09/25 10:40:54;;;;;;;8.43;5.73;;;22.60;67.70;;;;;;5051361;28;20280;-66
2021/09/25 10:43:27;;;;;;;10.10;5.97;;;22.60;67.80;;;;;;5066231;28;20195;-66
2021/09/25 10:46:01;;;;;;;8.83;5.73;;;22.60;67.90;;;;;;5062397;28;20262;-66
2021/09/25 10:48:33;;;;;;;6.80;5.50;;;22.60;67.80;;;;;;5070682;28;20543;-66
2021/09/25 10:51:10;;;;;;;8.27;5.13;;;22.50;68.10;;;;;;5069951;28;20205;-69
2021/09/25 10:53:46;;;;;;;8.27;5.17;;;22.50;68.20;;;;;;5062822;28;20198;-69
2021/09/25 10:56:25;;;;;;;6.20;5.00;;;22.60;68.40;;;;;;5068534;28;20198;-66
2021/09/25 10:59:00;;;;;;;6.77;4.93;;;22.50;68.40;;;;;;5067666;28;20198;-65
2021/09/25 11:01:43;;;;;;;7.17;5.17;;;22.50;68.20;;;;;;5071448;28;20650;-66
2021/09/25 11:04:23;;;;;;;6.80;4.60;;;22.50;68.40;;;;;;5055283;28;20197;-66
2021/09/25 11:06:57;;;;;;;6.70;4.93;;;22.60;68.50;;;;;;5049768;28;20263;-66
2021/09/25 11:09:42;;;;;;;6.20;4.67;;;22.50;68.30;;;;;;5062104;28;20213;-66
2021/09/25 11:12:15;;;;;;;7.10;4.80;;;22.50;68.70;;;;;;5053816;28;20190;-66
2021/09/25 11:14:55;;;;;;;5.83;4.93;;;22.50;68.50;;;;;;5053386;28;20593;-65
2021/09/25 11:17:45;;;;;;;7.03;5.07;;;22.50;68.40;;;;;;5069472;28;20198;-65
2021/09/25 11:20:19;;;;;;;6.43;4.43;;;22.50;68.80;;;;;;5036116;28;20564;-68
2021/09/25 11:22:55;;;;;;;5.97;4.40;;;22.50;69.00;;;;;;5054236;28;20293;-69
2021/09/25 11:25:28;;;;;;;6.03;4.50;;;22.50;69.00;;;;;;5070034;28;20208;-68
2021/09/25 11:28:04;;;;;;;5.70;4.53;;;22.50;68.80;;;;;;5071134;28;20201;-68
2021/09/25 11:30:47;;;;;;;6.20;4.47;;;22.50;68.90;;;;;;5065887;28;20296;-65
2021/09/25 11:33:38;;;;;;;5.50;4.67;;;22.50;68.90;;;;;;5069288;28;20214;-65
2021/09/25 11:36:12;;;;;;;5.53;4.63;;;22.50;69.10;;;;;;5054081;28;20204;-69
2021/09/25 11:38:49;;;;;;;5.70;4.63;;;22.60;69.30;;;;;;5068268;28;20201;-69
2021/09/25 11:41:23;;;;;;;5.03;4.53;;;22.50;69.90;;;;;;5065727;28;20189;-69
2021/09/25 11:43:58;;;;;;;5.90;5.17;;;22.50;69.30;;;;;;5053508;28;20185;-69
2021/09/25 11:46:27;;;;;;;5.33;4.83;;;22.50;69.20;;;;;;5056005;28;20561;-65
2021/09/25 11:48:58;;;;;;;6.10;5.03;;;22.50;69.20;;;;;;5070976;28;20205;-65
2021/09/25 11:51:28;;;;;;;5.27;4.73;;;22.50;69.20;;;;;;5054403;28;20675;-68
2021/09/25 11:54:00;;;;;;;5.53;4.60;;;22.50;69.40;;;;;;5065811;28;20216;-69
2021/09/25 11:56:34;;;;;;;5.07;4.50;;;22.50;69.50;;;;;;5066507;28;20217;-65
2021/09/25 11:59:06;;;;;;;5.20;4.70;;;22.50;69.50;;;;;;5079357;28;20258;-65
2021/09/25 12:01:39;;;;;;;5.87;4.93;;;22.50;69.40;;;;;;5075288;28;20208;-64
2021/09/25 12:04:10;;;;;;;6.33;4.70;;;22.50;69.30;;;;;;5060955;28;20631;-65
2021/09/25 12:06:53;;;;;;;4.50;4.10;;;22.50;69.20;;;;;;5067384;28;20214;-68
2021/09/25 12:09:49;;;;;;;4.83;4.30;;;22.50;69.70;;;;;;5071190;28;20233;-68
2021/09/25 12:12:27;;;;;;;5.90;4.60;;;22.50;69.60;;;;;;5066357;28;20210;-65
2021/09/25 12:15:09;;;;;;;5.37;4.87;;;22.50;69.70;;;;;;5063143;28;20197;-68
2021/09/25 12:17:37;;;;;;;4.90;4.40;;;22.50;69.70;;;;;;5068931;28;20194;-69
2021/09/25 12:20:29;;;;;;;4.87;4.37;;;22.50;70.10;;;;;;5052700;28;20360;-68
2021/09/25 12:23:00;;;;;;;4.40;4.00;;;22.50;69.70;;;;;;5069712;28;20200;-68
2021/09/25 12:25:34;;;;;;;5.60;5.00;;;22.50;69.50;;;;;;5033352;28;20208;-68
2021/09/25 12:28:22;;;;;;;4.50;4.10;;;22.50;69.50;;;;;;5074415;28;20214;-68
2021/09/25 12:30:54;;;;;;;4.90;4.20;;;22.50;69.70;;;;;;5056910;28;20332;-65
2021/09/25 12:33:25;;;;;;;5.07;4.10;;;22.50;69.70;;;;;;5061718;28;20654;-65
2021/09/25 12:36:07;;;;;;;4.93;4.47;;;22.60;69.70;;;;;;5053984;28;20216;-66
2021/09/25 12:38:43;;;;;;;4.93;3.90;;;22.60;69.50;;;;;;5069277;28;20202;-66
2021/09/25 12:41:28;;;;;;;4.80;4.40;;;22.60;69.50;;;;;;5071684;28;20735;-65
2021/09/25 12:44:03;;;;;;;4.60;4.20;;;22.60;69.50;;;;;;5072614;28;20185;-65
2021/09/25 12:46:40;;;;;;;6.07;4.60;;;22.60;69.70;;;;;;5037938;28;20241;-65
2021/09/25 12:49:17;;;;;;;5.00;4.33;;;22.60;69.60;;;;;;5069751;28;20221;-65
2021/09/25 12:52:13;;;;;;;5.27;4.37;;;22.60;69.70;;;;;;5073583;28;20189;-68
2021/09/25 12:54:46;;;;;;;5.73;3.90;;;22.60;69.60;;;;;;5071381;28;20254;-68
2021/09/25 12:57:21;;;;;;;4.87;3.70;;;22.60;69.80;;;;;;5055531;28;20198;-69
2021/09/25 13:00:03;;;;;;;5.80;4.37;;;22.60;69.80;;;;;;5058119;28;20220;-69
2021/09/25 13:02:31;;;;;;;4.90;4.40;;;22.60;69.70;;;;;;5070881;28;20202;-68
2021/09/25 13:05:13;;;;;;;6.20;4.00;;;22.60;69.70;;;;;;5049862;28;20529;-65
2021/09/25 13:07:43;;;;;;;6.57;4.30;;;22.60;69.80;;;;;;5063356;28;20250;-64
2021/09/25 13:10:25;;;;;;;6.13;4.10;;;22.60;69.50;;;;;;5061369;28;20217;-64
2021/09/25 13:12:58;;;;;;;5.23;4.07;;;22.60;69.50;;;;;;5063438;28;20194;-64
2021/09/25 13:15:34;;;;;;;5.10;4.60;;;22.60;69.70;;;;;;5065519;28;20202;-65